CheckWX is a tool to help pilots better visualize weather data.  It is not intended as a substitute for an official pre-flight weather briefing.

20:31:56 UTC

UTDK TAF
Kulob Airport
Kulyab, Tajikistan
TAF UTDK 221800Z 2219/2304 03005MPS 6000 SCT050CB BKN100 TEMPO 2219/2304 VRB02MPS 3100 -SHRA BR PROB40 TEMPO 2219/2304 1800 TSRA BR

Mar-22@
19:00 UTC

Mar-22 @ 19:00 UTC

Mar-23@
04:00 UTC

Mar-23 @ 04:00 UTC

TAF UTDK 221800Z 2219/2304 03005MPS 6000 SCT050CB BKN100
Wind
  • 030° at 10 KTS
Cloud Levels
  • Scattered at 5,000' AGL
  • Broken at 10,000' AGL

Mar-22@
19:00 UTC

Mar-22 @ 19:00 UTC

Mar-23@
04:00 UTC

Mar-23 @ 04:00 UTC

TEMPO 2219/2304 VRB02MPS 3100 -SHRA BR

Temporary

Temporary Changes expected for less than half the time period

Wind
  • Variable at 4 KTS
Conditions
Light Rain, Mist

Mar-22@
19:00 UTC

Mar-22 @ 19:00 UTC

Mar-23@
04:00 UTC

Mar-23 @ 04:00 UTC

PROB40 TEMPO 2219/2304 1800 TSRA BR

Temporary - 40% Likelihood

Temporary - 40% Likelihood during this time.

Conditions
Thunderstorm, Rain, Mist